WetterOnline ( https://www.wetteronline.ch )

Wetter aktuell Frankfurt am Main

Aktuelles Wetter: Offenbach (119m)

6-stündlich | Neueste Meldungen
Ortszeit Temperatur Wetter
Fr, 24.01. 13:00 0.9° C bedeckt
Fr, 24.01. 7:00 0.3° C bedeckt
Fr, 24.01. 1:00 1.2° C bedeckt
Do, 23.01. 19:00 1.8° C bedeckt
Do, 23.01. 13:00 3.5° C bedeckt
Do, 23.01. 7:00 -0.0° C bedeckt
Do, 23.01. 1:00 -0.6° C bedeckt
Mi, 22.01. 19:00 -1.9° C bedeckt
Ortszeit Temperatur Wetter
Fr, 24.01. 18:00 0.8° C bedeckt
Fr, 24.01. 17:50 0.8° C bedeckt
Fr, 24.01. 17:40 0.9° C bedeckt
Fr, 24.01. 17:30 0.9° C bedeckt
Fr, 24.01. 17:20 0.9° C bedeckt
Fr, 24.01. 17:10 0.9° C bedeckt
Fr, 24.01. 17:00 0.9° C bedeckt
Fr, 24.01. 16:30 0.9° C bedeckt
Fr, 24.01. 16:00 1.0° C bedeckt
Fr, 24.01. 15:30 1.2° C bedeckt
Fr, 24.01. 15:00 0.9° C bedeckt
Ortszeit Relative Feuchte Sichtweite
Fr, 24.01. 13:00 82% 8 km
Fr, 24.01. 7:00 88% 7 km
Fr, 24.01. 1:00 83% 12 km
Do, 23.01. 19:00 82% 14 km
Do, 23.01. 13:00 74% 30 km
Do, 23.01. 7:00 96% 3.3 km
Do, 23.01. 1:00 95% 3.8 km
Mi, 22.01. 19:00 98% 2.5 km
Ortszeit Relative Feuchte Sichtweite
Fr, 24.01. 18:00 90% 5.0 km
Fr, 24.01. 17:50 90% -
Fr, 24.01. 17:40 89% -
Fr, 24.01. 17:30 88% 6 km
Fr, 24.01. 17:20 88% -
Fr, 24.01. 17:10 88% -
Fr, 24.01. 17:00 87% 6 km
Fr, 24.01. 16:30 86% 7 km
Fr, 24.01. 16:00 85% 7 km
Fr, 24.01. 15:30 84% 7 km
Fr, 24.01. 15:00 83% 7 km
Ortszeit Niederschlagsmenge Niederschlagsart
Fr, 24.01. 13:00 0.0 l/m2 in 6 Std. -
Fr, 24.01. 7:00 0.0 l/m2 in 12 Std. -
Fr, 24.01. 1:00 0.0 l/m2 in 6 Std. -
Do, 23.01. 19:00 0.0 l/m2 in 12 Std. -
Do, 23.01. 13:00 0.0 l/m2 in 6 Std. -
Do, 23.01. 7:00 0.0 l/m2 in 12 Std. -
Do, 23.01. 1:00 0.0 l/m2 in 6 Std. -
Mi, 22.01. 19:00 0.0 l/m2 in 12 Std. -
Ortszeit Niederschlagsmenge Niederschlagsart
Fr, 24.01. 18:00 0.0 l/m2 in 1 Std. -
Fr, 24.01. 17:50 keine Meldung -
Fr, 24.01. 17:40 keine Meldung -
Fr, 24.01. 17:30 0.0 l/m2 in 1 Std. -
Fr, 24.01. 17:20 keine Meldung -
Fr, 24.01. 17:10 keine Meldung -
Fr, 24.01. 17:00 0.0 l/m2 in 1 Std. -
Fr, 24.01. 16:30 0.0 l/m2 in 1 Std. -
Fr, 24.01. 16:00 0.0 l/m2 in 1 Std. -
Fr, 24.01. 15:30 0.0 l/m2 in 1 Std. -
Fr, 24.01. 15:00 0.0 l/m2 in 1 Std. -
Ortszeit Stärke Spitze Richtung
km/h Bft. km/h Grad Sektor
Fr, 24.01. 13:00 6 1 15 150° SO
Fr, 24.01. 7:00 7 2 15 180° S
Fr, 24.01. 1:00 6 1 17 180° S
Do, 23.01. 19:00 7 2 18 130° SO
Do, 23.01. 13:00 6 1 17 50° NO
Do, 23.01. 7:00 2 1 7 10° N
Do, 23.01. 1:00 2 1 7 80° O
Mi, 22.01. 19:00 0 0 11 - -
Ortszeit Stärke Spitze Richtung
km/h Bft. km/h Grad Sektor
Fr, 24.01. 18:00 4 1 7 260° W
Fr, 24.01. 17:50 4 1 - 260° W
Fr, 24.01. 17:40 4 1 - 250° W
Fr, 24.01. 17:30 4 1 7 220° SW
Fr, 24.01. 17:20 4 1 - 220° SW
Fr, 24.01. 17:10 6 1 - 230° SW
Fr, 24.01. 17:00 4 1 7 260° W
Fr, 24.01. 16:30 4 1 7 220° SW
Fr, 24.01. 16:00 7 2 11 220° SW
Fr, 24.01. 15:30 6 1 9 190° S
Fr, 24.01. 15:00 6 1 13 250° W
Ortszeit Untergrenze Bedeckung Gattung
total tief tief mittel hoch
Fr, 24.01. 13:00 360 m 8/8 8/8 - - -
Fr, 24.01. 7:00 240 m 8/8 8/8 - - -
Fr, 24.01. 1:00 390 m 8/8 8/8 - - -
Do, 23.01. 19:00 420 m 8/8 8/8 - - -
Do, 23.01. 13:00 660 m 8/8 8/8 - - -
Do, 23.01. 7:00 360 m 8/8 8/8 - - -
Do, 23.01. 1:00 420 m 8/8 8/8 - - -
Mi, 22.01. 19:00 90 m 8/8 8/8 - - -
Ortszeit Bedeckungsgrad in Achtel und Wolkenuntergrenze
Fr, 24.01. 18:00 8(210m)
Fr, 24.01. 17:50 8(210m)
Fr, 24.01. 17:40 8(210m)
Fr, 24.01. 17:30 8(240m)
Fr, 24.01. 17:20 8(240m)
Fr, 24.01. 17:10 8(240m)
Fr, 24.01. 17:00 8(240m)
Fr, 24.01. 16:30 8(270m)
Fr, 24.01. 16:00 8(300m)
Fr, 24.01. 15:30 8(330m)
Fr, 24.01. 15:00 8(330m)
Ortszeit Luftdruck NN (hPa) Tendenz (hPa in 3 Std.)
Fr, 24.01. 13:00 1026 - 0,9
Fr, 24.01. 7:00 1026 - 0,5
Fr, 24.01. 1:00 1028 - 0,7
Do, 23.01. 19:00 1029 - 1,4
Do, 23.01. 13:00 1033 - 1,8
Do, 23.01. 7:00 1035 - 1,2
Do, 23.01. 1:00 1038 + 0,3
Mi, 22.01. 19:00 1037 + 0,3
Ortszeit Luftdruck NN (hPa) Tendenz (hPa in 3 Std.)
Fr, 24.01. 18:00 1025 0,0
Fr, 24.01. 17:50 1025 keine Meldung
Fr, 24.01. 17:40 1025 keine Meldung
Fr, 24.01. 17:30 1024 - 0,2
Fr, 24.01. 17:20 1024 keine Meldung
Fr, 24.01. 17:10 1024 keine Meldung
Fr, 24.01. 17:00 1024 - 0,7
Fr, 24.01. 16:30 1024 - 1,1
Fr, 24.01. 16:00 1024 - 1,2
Fr, 24.01. 15:30 1024 - 1,5
Fr, 24.01. 15:00 1025 - 1,6
Ortszeit Schneehöhe (cm)
Fr, 24.01. 13:00 0
Fr, 24.01. 7:00 0
Fr, 24.01. 1:00 0
Do, 23.01. 19:00 0
Do, 23.01. 13:00 0
Do, 23.01. 7:00 0
Do, 23.01. 1:00 0
Mi, 22.01. 19:00 0
Ortszeit Schneehöhe (cm)
Fr, 24.01. 18:00 0
Fr, 24.01. 17:50 0
Fr, 24.01. 17:40 0
Fr, 24.01. 17:30 0
Fr, 24.01. 17:20 0
Fr, 24.01. 17:10 0
Fr, 24.01. 17:00 0
Fr, 24.01. 16:30 0
Fr, 24.01. 16:00 0
Fr, 24.01. 15:30 0
Fr, 24.01. 15:00 0
Link zu dieser Seite / Seite empfehlen

Das Wetter in ...